Abram, Texas
Current Conditions -  °F | °C
As of 12:53 AM on Saturday 01 Nov 2014 (Local Time) from KMFE Reporting Station
Clear Clear  
Wind Chill: 64°   Ceiling: Unl
Heat Index: 64°   Visibility: 10mi
Dew Point: 56°   Wind: 3mph
Humidity: 75%   Direction: 350°N
Pressure: 30.24"   Gusts: NA
Location:  26.2167°N, 98.325°W
Report Text: KMFE 010553Z AUTO 35003KT 10SM CLR 18/13 A3024 RMK AO2 SLP238 T01780133 10244 20172 402720172 58001
Loading
Personal Weather Stations






























Interactive Weather Map
Tropical Storm Tracking
New forecast layout! Learn more

10-Day Weather Forecast

Advertisements
Track Severe Weather on mobile